Flight Track Log - Related Links

Times and Time Zones

All times are in EDT time to prevent confusion due to time zone crossing. See the N948CE flight status page for this flight to view local times or setup timezone preferences in your user account.

Time Position Orientation Groundspeed Altitude Reporting Facility
EDT Latitude Longitude Course Direction KTS MPH feet Rate Location/Type
Fri 06:01:32 PM 45.3853 -84.8800 163° South 135 155 3,400  Level Minneapolis Center
Fri 06:03:00 PM 45.2978 -84.8630 172° South  Level FlightAware Approximate
Fri 06:03:35 PM 45.3017 -84.8764 172° South 147 169 7,000  Level Minneapolis Center
Fri 06:04:37 PM 45.2478 -84.8717 176° South 155 178 9,100 1,632 Climbing Minneapolis Center
Fri 06:05:51 PM 45.2025 -84.8650 174° South 159 183 10,700 1,676 Climbing Minneapolis Center
Fri 06:06:53 PM 45.1467 -84.8567 174° South 163 188 12,900 1,742 Climbing Minneapolis Center
Fri 06:07:00 PM 45.0899 -84.7236 163° South  Level Estimated
Fri 06:07:55 PM 45.0978 -84.8533 177° South 171 197 14,300  Level Minneapolis Center
Fri 06:08:56 PM 45.0383 -84.8519 179° South 191 220 16,000 1,317 Climbing Minneapolis Center
Fri 06:09:58 PM 44.9806 -84.8500 179° South 195 224 17,000 484 Climbing Minneapolis Center
Fri 06:11:00 PM 44.9203 -84.8458 177° South 220 253 17,000  Level Minneapolis Center
Fri 06:12:14 PM 44.8572 -84.8406 177° South 227 261 17,000  Level Minneapolis Center
Fri 06:13:16 PM 44.7789 -84.8319 176° South 224 258 17,000  Level Minneapolis Center
Fri 06:14:18 PM 44.7158 -84.8261 176° South 225 259 17,000  Level Minneapolis Center
Fri 06:15:19 PM 44.6517 -84.8183 175° South 228 262 17,000  Level Minneapolis Center
Fri 06:16:21 PM 44.5867 -84.8108 175° South 232 267 17,000  Level Minneapolis Center
Fri 06:17:23 PM 44.5264 -84.7836 162° South 232 267 17,000  Level Minneapolis Center
Fri 06:18:25 PM 44.4683 -84.7419 153° Southeast 236 272 17,000  Level Minneapolis Center
Fri 06:19:27 PM 44.3972 -84.6986 156° South 233 268 17,000  Level Minneapolis Center
Fri 06:20:29 PM 44.3389 -84.6617 156° South 231 266 17,000  Level Minneapolis Center
Fri 06:21:31 PM 44.2817 -84.6258 156° South 228 262 17,000  Level Minneapolis Center
Fri 06:22:32 PM 44.2175 -84.5850 155° Southeast 238 274 17,000  Level Minneapolis Center
Fri 06:23:34 PM 44.1550 -84.5456 156° South 232 267 17,000  Level Minneapolis Center
Fri 06:24:36 PM 44.0975 -84.5103 156° South 230 265 17,000  Level Minneapolis Center
Fri 06:25:38 PM 44.0356 -84.4717 156° South 228 262 17,000  Level Minneapolis Center
Fri 06:26:52 PM 43.9792 -84.4356 155° Southeast 222 255 17,000  Level Minneapolis Center
Fri 06:27:54 PM 43.9139 -84.3942 155° Southeast 223 257 17,000  Level Minneapolis Center
Fri 06:28:56 PM 43.8567 -84.3578 155° Southeast 226 260 17,000  Level Minneapolis Center
Fri 06:29:58 PM 43.7994 -84.3239 157° South 225 259 17,000  Level Minneapolis Center
Fri 06:31:00 PM 43.7317 -84.2803 155° Southeast 224 258 17,000  Level Minneapolis Center
Fri 06:32:02 PM 43.6750 -84.2447 156° South 224 258 17,000 -290 Level Minneapolis Center
Fri 06:33:04 PM 43.6189 -84.2108 156° South 222 255 16,400 -1,017 Descending Minneapolis Center
Fri 06:34:00 PM 43.5550 -84.1725 156° South 236 272 15,000 -1,500 Descending Cleveland Center
Fri 06:35:00 PM 43.4936 -84.1347 156° South 241 277 13,500 -1,450 Descending Cleveland Center
Fri 06:36:00 PM 43.4281 -84.0936 156° South 247 284 12,100 -1,100 Descending Cleveland Center
Fri 06:37:00 PM 43.3728 -84.0619 157° South 247 284 11,300 -600 Descending Cleveland Center
Fri 06:38:00 PM 43.3156 -84.0244 155° Southeast 247 284 10,900 -200 Descending Cleveland Center
Fri 06:39:00 PM 43.2581 -83.9897 156° South 242 278 10,900 50 Level Cleveland Center
Fri 06:40:00 PM 43.1947 -83.9522 157° South 231 266 11,000 -50 Climbing Cleveland Center
Fri 06:41:00 PM 43.1392 -83.9208 158° South 231 266 10,800 -850 Descending Cleveland Center
Fri 06:42:00 PM 43.0800 -83.8833 155° Southeast 231 266 9,300 -1,450 Descending Cleveland Center
Fri 06:43:00 PM 43.0183 -83.8461 156° South 237 273 7,900 -1,150 Descending Cleveland Center
Fri 06:44:00 PM 42.9589 -83.8117 157° South 242 278 7,000 -857 Descending Cleveland Center
Fri 06:44:31 PM 42.9242 -83.7900 155° Southeast 236 272 6,600 -800 Descending Cleveland Center
Fri 06:45:00 PM 42.9058 -83.7778 154° Southeast 242 278 6,200 -1,377 Descending Cleveland Center
Fri 06:45:32 PM 42.8647 -83.7531 156° South 237 273 5,200 -1,300 Descending Cleveland Center
Fri 06:46:00 PM 42.8400 -83.7375 155° Southeast 242 278 4,900 -295 Descending Cleveland Center
Fri 06:46:33 PM 42.8069 -83.7303 171° South 211 243 4,900  Level Cleveland Center
Fri 06:47:00 PM 42.7819 -83.7319 183° South 226 260 4,900 -197 Level Cleveland Center
Fri 06:47:34 PM 42.7469 -83.7189 165° South 209 241 4,700 -947 Descending Cleveland Center
Fri 06:48:35 PM 42.7194 -83.6467 117° Southeast 228 262 3,400 -934 Descending Cleveland Center
Fri 06:49:36 PM 42.6964 -83.5778 114° Southeast 159 183 2,800 -545 Descending Cleveland Center
Fri 06:50:36 PM 42.6747 -83.5317 123° Southeast 118 136 2,300 -545 Descending Cleveland Center
Fri 06:51:37 PM 42.6633 -83.4886 110° East 122 140 1,700 -590 Descending Cleveland Center
Fri 06:53:00 PM 42.6500 -83.4167 144° Southeast  Level FlightAware Approximate
Fri 07:00:00 PM 42.6656 -83.4205 144° Southeast  Level Estimated
Fri 07:01:00 PM 42.6656 -83.4205 144° Southeast  Level Estimated

Login

Don't have an account? Register now (free) for customized features, flight alerts, and more!